sensor_id;sensor_type;location;lat;lon;timestamp;temperature;humidity
935;DHT22;454;53.254;10.400;2023-07-20T04:00:48;14.60;99.90
935;DHT22;454;53.254;10.400;2023-07-20T04:03:15;14.60;99.90
935;DHT22;454;53.254;10.400;2023-07-20T04:05:43;14.60;99.90
935;DHT22;454;53.254;10.400;2023-07-20T04:08:10;14.60;99.90
935;DHT22;454;53.254;10.400;2023-07-20T04:10:37;14.60;99.90
935;DHT22;454;53.254;10.400;2023-07-20T04:13:04;14.60;99.90
935;DHT22;454;53.254;10.400;2023-07-20T04:15:31;14.60;99.90
935;DHT22;454;53.254;10.400;2023-07-20T04:17:59;14.60;99.90
935;DHT22;454;53.254;10.400;2023-07-20T04:20:26;14.60;99.90
935;DHT22;454;53.254;10.400;2023-07-20T04:22:53;14.70;99.90
935;DHT22;454;53.254;10.400;2023-07-20T04:25:20;14.70;99.90
935;DHT22;454;53.254;10.400;2023-07-20T04:27:46;14.70;99.90
935;DHT22;454;53.254;10.400;2023-07-20T04:30:13;14.70;99.90
935;DHT22;454;53.254;10.400;2023-07-20T04:32:41;14.70;99.90
935;DHT22;454;53.254;10.400;2023-07-20T04:35:11;14.80;99.90
935;DHT22;454;53.254;10.400;2023-07-20T04:37:38;14.80;99.90
935;DHT22;454;53.254;10.400;2023-07-20T04:40:12;14.80;99.90
935;DHT22;454;53.254;10.400;2023-07-20T04:42:39;14.90;99.90
935;DHT22;454;53.254;10.400;2023-07-20T04:45:06;14.90;99.90
935;DHT22;454;53.254;10.400;2023-07-20T04:47:33;15.00;99.90
935;DHT22;454;53.254;10.400;2023-07-20T04:50:00;15.10;99.90
935;DHT22;454;53.254;10.400;2023-07-20T04:52:28;15.10;99.90
935;DHT22;454;53.254;10.400;2023-07-20T04:54:54;15.10;99.90
935;DHT22;454;53.254;10.400;2023-07-20T04:57:23;15.10;99.90
935;DHT22;454;53.254;10.400;2023-07-20T04:59:51;15.10;99.90
935;DHT22;454;53.254;10.400;2023-07-20T05:02:17;15.20;99.90
935;DHT22;454;53.254;10.400;2023-07-20T05:04:44;15.10;99.90
935;DHT22;454;53.254;10.400;2023-07-20T05:07:11;15.20;99.90
935;DHT22;454;53.254;10.400;2023-07-20T05:09:39;15.20;99.90
935;DHT22;454;53.254;10.400;2023-07-20T05:12:06;15.20;99.90
935;DHT22;454;53.254;10.400;2023-07-20T05:14:33;15.20;99.90
935;DHT22;454;53.254;10.400;2023-07-20T05:17:00;15.30;99.90
935;DHT22;454;53.254;10.400;2023-07-20T05:19:27;15.30;99.90
935;DHT22;454;53.254;10.400;2023-07-20T05:21:53;15.30;99.90
935;DHT22;454;53.254;10.400;2023-07-20T05:24:20;15.40;99.90
935;DHT22;454;53.254;10.400;2023-07-20T05:26:48;15.50;99.90
935;DHT22;454;53.254;10.400;2023-07-20T05:29:15;15.50;99.90
935;DHT22;454;53.254;10.400;2023-07-20T05:31:42;15.60;99.90
935;DHT22;454;53.254;10.400;2023-07-20T05:34:08;15.60;99.90
935;DHT22;454;53.254;10.400;2023-07-20T05:36:35;15.70;99.90
935;DHT22;454;53.254;10.400;2023-07-20T05:39:02;15.80;99.90
935;DHT22;454;53.254;10.400;2023-07-20T05:41:29;15.80;99.90
935;DHT22;454;53.254;10.400;2023-07-20T05:43:57;15.90;99.90
935;DHT22;454;53.254;10.400;2023-07-20T05:46:24;16.00;99.90
935;DHT22;454;53.254;10.400;2023-07-20T05:48:51;16.00;99.90
935;DHT22;454;53.254;10.400;2023-07-20T05:51:17;16.00;99.90
935;DHT22;454;53.254;10.400;2023-07-20T05:53:44;16.00;99.90
935;DHT22;454;53.254;10.400;2023-07-20T05:56:11;16.00;99.90
935;DHT22;454;53.254;10.400;2023-07-20T05:58:37;16.10;99.90
935;DHT22;454;53.254;10.400;2023-07-20T06:01:05;16.20;99.90
935;DHT22;454;53.254;10.400;2023-07-20T06:03:32;16.40;99.90
935;DHT22;454;53.254;10.400;2023-07-20T06:05:59;16.60;99.90
935;DHT22;454;53.254;10.400;2023-07-20T06:08:27;16.80;99.90
935;DHT22;454;53.254;10.400;2023-07-20T06:10:54;16.90;99.90
935;DHT22;454;53.254;10.400;2023-07-20T06:13:20;16.90;99.90
935;DHT22;454;53.254;10.400;2023-07-20T06:15:47;17.00;99.90
935;DHT22;454;53.254;10.400;2023-07-20T06:18:15;16.90;99.90
935;DHT22;454;53.254;10.400;2023-07-20T06:20:42;16.90;99.90
935;DHT22;454;53.254;10.400;2023-07-20T06:23:09;16.90;99.90
935;DHT22;454;53.254;10.400;2023-07-20T06:25:35;17.00;99.90
935;DHT22;454;53.254;10.400;2023-07-20T06:28:02;17.10;99.90
935;DHT22;454;53.254;10.400;2023-07-20T06:30:30;17.40;99.90
935;DHT22;454;53.254;10.400;2023-07-20T06:32:57;17.70;99.90
935;DHT22;454;53.254;10.400;2023-07-20T06:35:25;18.20;99.90
935;DHT22;454;53.254;10.400;2023-07-20T06:37:51;19.10;99.90
935;DHT22;454;53.254;10.400;2023-07-20T06:40:18;20.50;99.90
935;DHT22;454;53.254;10.400;2023-07-20T06:42:45;21.60;99.90
935;DHT22;454;53.254;10.400;2023-07-20T06:45:12;21.90;99.90
935;DHT22;454;53.254;10.400;2023-07-20T06:47:39;21.80;99.90
935;DHT22;454;53.254;10.400;2023-07-20T06:50:07;21.60;99.90
935;DHT22;454;53.254;10.400;2023-07-20T06:52:35;21.00;99.90
935;DHT22;454;53.254;10.400;2023-07-20T06:55:02;20.80;99.90
935;DHT22;454;53.254;10.400;2023-07-20T06:57:29;21.20;99.90
935;DHT22;454;53.254;10.400;2023-07-20T06:59:56;21.50;99.90
935;DHT22;454;53.254;10.400;2023-07-20T07:02:22;21.60;99.90
935;DHT22;454;53.254;10.400;2023-07-20T07:04:49;22.40;99.90
935;DHT22;454;53.254;10.400;2023-07-20T07:07:16;23.10;99.90
935;DHT22;454;53.254;10.400;2023-07-20T07:09:44;23.70;99.90
935;DHT22;454;53.254;10.400;2023-07-20T07:12:11;24.00;99.90
935;DHT22;454;53.254;10.400;2023-07-20T07:14:37;23.80;99.90
935;DHT22;454;53.254;10.400;2023-07-20T07:17:04;24.10;99.90
935;DHT22;454;53.254;10.400;2023-07-20T07:19:31;24.80;99.90
935;DHT22;454;53.254;10.400;2023-07-20T07:21:58;24.40;99.90
935;DHT22;454;53.254;10.400;2023-07-20T07:24:24;23.80;99.90
935;DHT22;454;53.254;10.400;2023-07-20T07:26:52;24.00;99.90
935;DHT22;454;53.254;10.400;2023-07-20T07:29:19;23.40;99.90
935;DHT22;454;53.254;10.400;2023-07-20T07:31:46;22.60;99.90
935;DHT22;454;53.254;10.400;2023-07-20T07:34:12;23.10;99.90
935;DHT22;454;53.254;10.400;2023-07-20T07:36:39;23.60;99.90
935;DHT22;454;53.254;10.400;2023-07-20T07:39:06;22.80;99.90
935;DHT22;454;53.254;10.400;2023-07-20T07:41:33;22.50;99.90
935;DHT22;454;53.254;10.400;2023-07-20T07:44:01;23.20;99.90
935;DHT22;454;53.254;10.400;2023-07-20T07:46:27;23.60;99.90
935;DHT22;454;53.254;10.400;2023-07-20T07:48:54;24.00;99.90
935;DHT22;454;53.254;10.400;2023-07-20T07:51:21;24.70;99.90
935;DHT22;454;53.254;10.400;2023-07-20T07:53:47;25.30;99.90
935;DHT22;454;53.254;10.400;2023-07-20T07:56:14;25.30;99.90
935;DHT22;454;53.254;10.400;2023-07-20T07:58:42;24.70;99.90
935;DHT22;454;53.254;10.400;2023-07-20T08:01:10;24.70;99.90
935;DHT22;454;53.254;10.400;2023-07-20T08:03:36;25.00;99.90
935;DHT22;454;53.254;10.400;2023-07-20T08:06:03;24.50;99.90
935;DHT22;454;53.254;10.400;2023-07-20T08:08:31;23.50;99.90
935;DHT22;454;53.254;10.400;2023-07-20T08:10:58;23.10;99.90
935;DHT22;454;53.254;10.400;2023-07-20T08:13:25;22.90;99.90
935;DHT22;454;53.254;10.400;2023-07-20T08:15:53;23.70;99.90
935;DHT22;454;53.254;10.400;2023-07-20T08:18:21;24.30;99.90
935;DHT22;454;53.254;10.400;2023-07-20T08:20:48;25.00;99.90
935;DHT22;454;53.254;10.400;2023-07-20T08:23:15;25.10;99.90
935;DHT22;454;53.254;10.400;2023-07-20T08:25:42;24.60;99.90
935;DHT22;454;53.254;10.400;2023-07-20T08:28:10;23.80;99.90
935;DHT22;454;53.254;10.400;2023-07-20T08:30:41;23.40;99.90
935;DHT22;454;53.254;10.400;2023-07-20T08:33:09;23.20;99.90
935;DHT22;454;53.254;10.400;2023-07-20T08:35:37;23.50;99.90
935;DHT22;454;53.254;10.400;2023-07-20T08:38:04;23.30;99.90
935;DHT22;454;53.254;10.400;2023-07-20T08:40:31;23.20;99.90
935;DHT22;454;53.254;10.400;2023-07-20T08:42:58;23.20;99.90
935;DHT22;454;53.254;10.400;2023-07-20T08:45:27;22.90;99.90
935;DHT22;454;53.254;10.400;2023-07-20T08:47:55;22.90;99.90
935;DHT22;454;53.254;10.400;2023-07-20T08:50:23;22.80;99.90
935;DHT22;454;53.254;10.400;2023-07-20T08:52:52;22.50;99.90
935;DHT22;454;53.254;10.400;2023-07-20T08:55:19;22.20;99.90
935;DHT22;454;53.254;10.400;2023-07-20T08:57:50;21.90;99.90
935;DHT22;454;53.254;10.400;2023-07-20T09:00:17;21.70;99.90
935;DHT22;454;53.254;10.400;2023-07-20T09:02:46;21.30;99.90
935;DHT22;454;53.254;10.400;2023-07-20T09:05:13;21.20;99.90
935;DHT22;454;53.254;10.400;2023-07-20T09:07:40;21.20;99.90
935;DHT22;454;53.254;10.400;2023-07-20T09:10:08;21.00;99.90
935;DHT22;454;53.254;10.400;2023-07-20T09:12:36;21.10;99.90
935;DHT22;454;53.254;10.400;2023-07-20T09:15:03;21.10;99.90
935;DHT22;454;53.254;10.400;2023-07-20T09:17:30;21.20;99.90
935;DHT22;454;53.254;10.400;2023-07-20T09:19:57;21.00;99.90
935;DHT22;454;53.254;10.400;2023-07-20T09:22:29;21.00;99.90
935;DHT22;454;53.254;10.400;2023-07-20T09:24:56;20.90;99.90
935;DHT22;454;53.254;10.400;2023-07-20T09:27:34;20.80;99.90
935;DHT22;454;53.254;10.400;2023-07-20T09:30:02;20.70;99.90
935;DHT22;454;53.254;10.400;2023-07-20T09:32:28;20.70;99.90
935;DHT22;454;53.254;10.400;2023-07-20T09:34:55;20.70;99.90
935;DHT22;454;53.254;10.400;2023-07-20T09:37:21;20.80;99.90
935;DHT22;454;53.254;10.400;2023-07-20T09:39:48;21.10;99.90
935;DHT22;454;53.254;10.400;2023-07-20T09:42:17;21.30;99.90
935;DHT22;454;53.254;10.400;2023-07-20T09:44:45;21.50;99.90
935;DHT22;454;53.254;10.400;2023-07-20T09:47:12;21.60;99.90
935;DHT22;454;53.254;10.400;2023-07-20T09:49:39;21.50;99.90
935;DHT22;454;53.254;10.400;2023-07-20T09:52:08;21.50;99.90
935;DHT22;454;53.254;10.400;2023-07-20T09:54:36;21.60;99.90
935;DHT22;454;53.254;10.400;2023-07-20T09:57:04;21.50;99.90
935;DHT22;454;53.254;10.400;2023-07-20T09:59:33;21.20;99.90
935;DHT22;454;53.254;10.400;2023-07-20T10:02:02;20.70;99.90
935;DHT22;454;53.254;10.400;2023-07-20T10:04:30;20.20;99.90
935;DHT22;454;53.254;10.400;2023-07-20T10:07:00;19.60;99.90
935;DHT22;454;53.254;10.400;2023-07-20T10:09:31;19.40;99.90
935;DHT22;454;53.254;10.400;2023-07-20T10:11:59;19.20;99.90
935;DHT22;454;53.254;10.400;2023-07-20T10:14:28;19.00;99.90
935;DHT22;454;53.254;10.400;2023-07-20T10:17:02;18.90;99.90
935;DHT22;454;53.254;10.400;2023-07-20T10:19:34;19.10;99.90
935;DHT22;454;53.254;10.400;2023-07-20T10:22:07;19.10;99.90
935;DHT22;454;53.254;10.400;2023-07-20T10:24:34;19.30;99.90
935;DHT22;454;53.254;10.400;2023-07-20T10:27:01;19.40;99.90
935;DHT22;454;53.254;10.400;2023-07-20T10:29:29;19.40;99.90
935;DHT22;454;53.254;10.400;2023-07-20T10:31:56;19.30;99.90
935;DHT22;454;53.254;10.400;2023-07-20T10:34:25;19.30;99.90
935;DHT22;454;53.254;10.400;2023-07-20T10:36:52;19.20;99.90
935;DHT22;454;53.254;10.400;2023-07-20T10:39:23;19.30;99.90
935;DHT22;454;53.254;10.400;2023-07-20T10:41:59;19.30;99.90
935;DHT22;454;53.254;10.400;2023-07-20T10:44:26;19.40;99.90
935;DHT22;454;53.254;10.400;2023-07-20T10:46:59;19.50;99.90
935;DHT22;454;53.254;10.400;2023-07-20T10:49:27;19.60;99.90
935;DHT22;454;53.254;10.400;2023-07-20T10:51:58;19.80;99.90
935;DHT22;454;53.254;10.400;2023-07-20T10:54:35;20.10;99.90
935;DHT22;454;53.254;10.400;2023-07-20T10:57:23;20.50;99.90
935;DHT22;454;53.254;10.400;2023-07-20T10:59:49;20.60;99.90
935;DHT22;454;53.254;10.400;2023-07-20T11:02:18;20.50;99.90
935;DHT22;454;53.254;10.400;2023-07-20T11:04:47;20.20;99.90
935;DHT22;454;53.254;10.400;2023-07-20T11:07:18;20.00;99.90
935;DHT22;454;53.254;10.400;2023-07-20T11:10:12;19.70;99.90
935;DHT22;454;53.254;10.400;2023-07-20T11:12:40;19.70;99.90
935;DHT22;454;53.254;10.400;2023-07-20T11:15:07;19.70;99.90
935;DHT22;454;53.254;10.400;2023-07-20T11:17:34;19.70;99.90
935;DHT22;454;53.254;10.400;2023-07-20T11:20:03;19.80;99.90
935;DHT22;454;53.254;10.400;2023-07-20T11:22:31;19.90;99.90
935;DHT22;454;53.254;10.400;2023-07-20T11:24:58;19.90;99.90
935;DHT22;454;53.254;10.400;2023-07-20T11:27:24;20.00;99.90
935;DHT22;454;53.254;10.400;2023-07-20T11:29:52;20.20;99.90
935;DHT22;454;53.254;10.400;2023-07-20T11:32:20;20.50;99.90
935;DHT22;454;53.254;10.400;2023-07-20T11:34:48;20.70;99.90
935;DHT22;454;53.254;10.400;2023-07-20T11:37:16;20.90;99.90
935;DHT22;454;53.254;10.400;2023-07-20T11:39:43;20.90;99.90
935;DHT22;454;53.254;10.400;2023-07-20T11:42:11;20.80;99.90
935;DHT22;454;53.254;10.400;2023-07-20T11:44:38;20.90;99.90
935;DHT22;454;53.254;10.400;2023-07-20T11:47:07;21.10;99.90
935;DHT22;454;53.254;10.400;2023-07-20T11:49:35;21.10;99.90
935;DHT22;454;53.254;10.400;2023-07-20T11:52:04;21.00;99.90
935;DHT22;454;53.254;10.400;2023-07-20T11:54:33;21.00;99.90
935;DHT22;454;53.254;10.400;2023-07-20T11:57:01;20.80;99.90
935;DHT22;454;53.254;10.400;2023-07-20T11:59:27;20.60;99.90
935;DHT22;454;53.254;10.400;2023-07-20T12:01:54;20.60;99.90
935;DHT22;454;53.254;10.400;2023-07-20T12:04:22;20.60;99.90
935;DHT22;454;53.254;10.400;2023-07-20T12:06:49;20.60;99.90
935;DHT22;454;53.254;10.400;2023-07-20T12:09:17;20.70;99.90
935;DHT22;454;53.254;10.400;2023-07-20T12:11:45;20.80;99.90
935;DHT22;454;53.254;10.400;2023-07-20T12:14:11;20.80;99.90
935;DHT22;454;53.254;10.400;2023-07-20T12:16:38;20.60;99.90
935;DHT22;454;53.254;10.400;2023-07-20T12:19:06;20.40;99.90
935;DHT22;454;53.254;10.400;2023-07-20T12:21:35;20.20;99.90
935;DHT22;454;53.254;10.400;2023-07-20T12:24:04;20.00;99.90
935;DHT22;454;53.254;10.400;2023-07-20T12:26:32;20.00;99.90
935;DHT22;454;53.254;10.400;2023-07-20T12:29:01;20.00;99.90
935;DHT22;454;53.254;10.400;2023-07-20T12:31:29;19.90;99.90
935;DHT22;454;53.254;10.400;2023-07-20T12:33:57;19.90;99.90
935;DHT22;454;53.254;10.400;2023-07-20T12:36:24;20.00;99.90
935;DHT22;454;53.254;10.400;2023-07-20T12:38:51;20.20;99.90
935;DHT22;454;53.254;10.400;2023-07-20T12:41:18;20.40;99.90
935;DHT22;454;53.254;10.400;2023-07-20T12:43:45;20.50;99.90
935;DHT22;454;53.254;10.400;2023-07-20T12:46:14;20.50;99.90
935;DHT22;454;53.254;10.400;2023-07-20T12:48:41;20.50;99.90
935;DHT22;454;53.254;10.400;2023-07-20T12:51:08;20.30;99.90
935;DHT22;454;53.254;10.400;2023-07-20T12:53:35;20.20;99.90
935;DHT22;454;53.254;10.400;2023-07-20T12:56:02;20.20;99.90
935;DHT22;454;53.254;10.400;2023-07-20T12:58:29;20.30;99.90
935;DHT22;454;53.254;10.400;2023-07-20T13:00:56;20.30;99.90
935;DHT22;454;53.254;10.400;2023-07-20T13:03:24;20.50;99.90
935;DHT22;454;53.254;10.400;2023-07-20T13:05:51;21.00;99.90
935;DHT22;454;53.254;10.400;2023-07-20T13:08:17;21.30;99.90
935;DHT22;454;53.254;10.400;2023-07-20T13:10:45;21.50;99.90
935;DHT22;454;53.254;10.400;2023-07-20T13:13:12;21.50;99.90
935;DHT22;454;53.254;10.400;2023-07-20T13:15:43;21.50;99.90
935;DHT22;454;53.254;10.400;2023-07-20T13:18:09;21.50;99.90
935;DHT22;454;53.254;10.400;2023-07-20T13:20:38;21.60;99.90
935;DHT22;454;53.254;10.400;2023-07-20T13:23:04;21.80;99.90
935;DHT22;454;53.254;10.400;2023-07-20T13:25:31;21.80;99.90
935;DHT22;454;53.254;10.400;2023-07-20T13:27:58;21.80;99.90
935;DHT22;454;53.254;10.400;2023-07-20T13:30:25;21.70;99.90
935;DHT22;454;53.254;10.400;2023-07-20T13:32:51;21.60;99.90
935;DHT22;454;53.254;10.400;2023-07-20T13:35:18;21.30;99.90
935;DHT22;454;53.254;10.400;2023-07-20T13:37:46;21.00;99.90
935;DHT22;454;53.254;10.400;2023-07-20T13:40:15;20.70;99.90
935;DHT22;454;53.254;10.400;2023-07-20T13:42:44;20.30;99.90
935;DHT22;454;53.254;10.400;2023-07-20T13:45:10;19.80;99.90
935;DHT22;454;53.254;10.400;2023-07-20T13:47:37;19.40;99.90
935;DHT22;454;53.254;10.400;2023-07-20T13:50:04;19.20;99.90
935;DHT22;454;53.254;10.400;2023-07-20T13:52:31;19.20;99.90
935;DHT22;454;53.254;10.400;2023-07-20T13:54:59;19.20;99.90
935;DHT22;454;53.254;10.400;2023-07-20T13:57:26;19.20;99.90
935;DHT22;454;53.254;10.400;2023-07-20T13:59:52;19.30;99.90
935;DHT22;454;53.254;10.400;2023-07-20T14:02:19;19.20;99.90
935;DHT22;454;53.254;10.400;2023-07-20T14:04:46;19.30;99.90
935;DHT22;454;53.254;10.400;2023-07-20T14:07:13;19.40;99.90
935;DHT22;454;53.254;10.400;2023-07-20T14:09:40;19.50;99.90
935;DHT22;454;53.254;10.400;2023-07-20T14:12:09;19.50;99.90
935;DHT22;454;53.254;10.400;2023-07-20T14:14:37;19.50;99.90
935;DHT22;454;53.254;10.400;2023-07-20T14:17:04;19.60;99.90
935;DHT22;454;53.254;10.400;2023-07-20T14:19:31;19.70;99.90
935;DHT22;454;53.254;10.400;2023-07-20T14:21:58;19.70;99.90
935;DHT22;454;53.254;10.400;2023-07-20T14:24:25;19.70;99.90
935;DHT22;454;53.254;10.400;2023-07-20T14:26:52;19.50;99.90
935;DHT22;454;53.254;10.400;2023-07-20T14:29:21;19.40;99.90
935;DHT22;454;53.254;10.400;2023-07-20T14:31:48;19.30;99.90
935;DHT22;454;53.254;10.400;2023-07-20T14:34:16;19.20;99.90
935;DHT22;454;53.254;10.400;2023-07-20T14:36:43;19.10;99.90
935;DHT22;454;53.254;10.400;2023-07-20T14:39:10;19.00;99.90
935;DHT22;454;53.254;10.400;2023-07-20T14:41:36;18.90;99.90
935;DHT22;454;53.254;10.400;2023-07-20T14:44:03;18.90;99.90
935;DHT22;454;53.254;10.400;2023-07-20T14:46:31;18.80;99.90
935;DHT22;454;53.254;10.400;2023-07-20T14:48:58;18.80;99.90
935;DHT22;454;53.254;10.400;2023-07-20T14:51:25;18.80;99.90
935;DHT22;454;53.254;10.400;2023-07-20T14:53:57;18.90;99.90
935;DHT22;454;53.254;10.400;2023-07-20T14:56:23;18.90;99.90
935;DHT22;454;53.254;10.400;2023-07-20T14:58:50;18.80;99.90
935;DHT22;454;53.254;10.400;2023-07-20T15:01:17;18.70;99.90
935;DHT22;454;53.254;10.400;2023-07-20T15:03:45;18.70;99.90
935;DHT22;454;53.254;10.400;2023-07-20T15:06:11;18.80;99.90
935;DHT22;454;53.254;10.400;2023-07-20T15:08:38;18.90;99.90
935;DHT22;454;53.254;10.400;2023-07-20T15:11:05;19.00;99.90
935;DHT22;454;53.254;10.400;2023-07-20T15:13:31;19.10;99.90
935;DHT22;454;53.254;10.400;2023-07-20T15:15:58;19.10;99.90
935;DHT22;454;53.254;10.400;2023-07-20T15:18:25;19.20;99.90
935;DHT22;454;53.254;10.400;2023-07-20T15:20:53;19.40;99.90
935;DHT22;454;53.254;10.400;2023-07-20T15:23:20;19.50;99.90
935;DHT22;454;53.254;10.400;2023-07-20T15:25:46;19.50;99.90
935;DHT22;454;53.254;10.400;2023-07-20T15:28:13;19.60;99.90
935;DHT22;454;53.254;10.400;2023-07-20T15:30:40;19.60;99.90
935;DHT22;454;53.254;10.400;2023-07-20T15:33:06;19.70;99.90
935;DHT22;454;53.254;10.400;2023-07-20T15:35:33;19.70;99.90
935;DHT22;454;53.254;10.400;2023-07-20T15:38:01;19.80;99.90
935;DHT22;454;53.254;10.400;2023-07-20T15:40:28;19.80;99.90
935;DHT22;454;53.254;10.400;2023-07-20T15:42:54;19.80;99.90
935;DHT22;454;53.254;10.400;2023-07-20T15:45:21;19.80;99.90
935;DHT22;454;53.254;10.400;2023-07-20T15:47:49;19.80;99.90
935;DHT22;454;53.254;10.400;2023-07-20T15:50:16;19.90;99.90
935;DHT22;454;53.254;10.400;2023-07-20T15:52:42;19.80;99.90
935;DHT22;454;53.254;10.400;2023-07-20T15:55:11;19.70;99.90
935;DHT22;454;53.254;10.400;2023-07-20T15:57:37;19.70;99.90
935;DHT22;454;53.254;10.400;2023-07-20T16:00:05;19.80;99.90
935;DHT22;454;53.254;10.400;2023-07-20T16:02:35;19.90;99.90
935;DHT22;454;53.254;10.400;2023-07-20T16:05:02;19.80;99.90
935;DHT22;454;53.254;10.400;2023-07-20T16:07:29;19.70;99.90
935;DHT22;454;53.254;10.400;2023-07-20T16:09:56;20.00;99.90
935;DHT22;454;53.254;10.400;2023-07-20T16:12:27;20.20;99.90
935;DHT22;454;53.254;10.400;2023-07-20T16:14:56;20.30;99.90
935;DHT22;454;53.254;10.400;2023-07-20T16:17:23;20.20;99.90
935;DHT22;454;53.254;10.400;2023-07-20T16:19:50;20.20;99.90
935;DHT22;454;53.254;10.400;2023-07-20T16:22:16;20.50;99.90
935;DHT22;454;53.254;10.400;2023-07-20T16:24:43;20.30;99.90
935;DHT22;454;53.254;10.400;2023-07-20T16:27:10;20.20;99.90
935;DHT22;454;53.254;10.400;2023-07-20T16:29:38;20.30;99.90
935;DHT22;454;53.254;10.400;2023-07-20T16:32:05;20.40;99.90
935;DHT22;454;53.254;10.400;2023-07-20T16:34:32;20.40;99.90
935;DHT22;454;53.254;10.400;2023-07-20T16:36:58;20.40;99.90
935;DHT22;454;53.254;10.400;2023-07-20T16:39:25;20.40;99.90
935;DHT22;454;53.254;10.400;2023-07-20T16:41:52;20.30;99.90
935;DHT22;454;53.254;10.400;2023-07-20T16:44:19;20.30;99.90
935;DHT22;454;53.254;10.400;2023-07-20T16:46:47;20.40;99.90
935;DHT22;454;53.254;10.400;2023-07-20T16:49:13;20.50;99.90
935;DHT22;454;53.254;10.400;2023-07-20T16:51:40;20.60;99.90
935;DHT22;454;53.254;10.400;2023-07-20T16:54:07;20.70;99.90
935;DHT22;454;53.254;10.400;2023-07-20T16:56:34;20.70;99.90
935;DHT22;454;53.254;10.400;2023-07-20T16:59:01;20.60;99.90
935;DHT22;454;53.254;10.400;2023-07-20T17:01:27;20.30;99.90
935;DHT22;454;53.254;10.400;2023-07-20T17:03:55;20.20;99.90
935;DHT22;454;53.254;10.400;2023-07-20T17:06:22;20.20;99.90
935;DHT22;454;53.254;10.400;2023-07-20T17:08:49;20.20;99.90
935;DHT22;454;53.254;10.400;2023-07-20T17:11:16;20.20;99.90
935;DHT22;454;53.254;10.400;2023-07-20T17:13:43;20.10;99.90
935;DHT22;454;53.254;10.400;2023-07-20T17:16:09;20.00;99.90
935;DHT22;454;53.254;10.400;2023-07-20T17:18:37;20.00;99.90
935;DHT22;454;53.254;10.400;2023-07-20T17:21:05;20.10;99.90
935;DHT22;454;53.254;10.400;2023-07-20T17:23:32;20.10;99.90
935;DHT22;454;53.254;10.400;2023-07-20T17:26:00;19.90;99.90
935;DHT22;454;53.254;10.400;2023-07-20T17:28:26;19.80;99.90
935;DHT22;454;53.254;10.400;2023-07-20T17:30:57;19.70;99.90
935;DHT22;454;53.254;10.400;2023-07-20T17:33:25;19.70;99.90
935;DHT22;454;53.254;10.400;2023-07-20T17:35:51;19.60;99.90
935;DHT22;454;53.254;10.400;2023-07-20T17:38:20;19.70;99.90
935;DHT22;454;53.254;10.400;2023-07-20T17:40:47;19.80;99.90
935;DHT22;454;53.254;10.400;2023-07-20T17:43:14;19.90;99.90
935;DHT22;454;53.254;10.400;2023-07-20T17:45:41;19.80;99.90
935;DHT22;454;53.254;10.400;2023-07-20T17:48:07;19.90;99.90
935;DHT22;454;53.254;10.400;2023-07-20T17:50:34;19.80;99.90
935;DHT22;454;53.254;10.400;2023-07-20T17:53:01;19.70;99.90
935;DHT22;454;53.254;10.400;2023-07-20T17:55:30;19.70;99.90
935;DHT22;454;53.254;10.400;2023-07-20T17:57:57;19.70;99.90
935;DHT22;454;53.254;10.400;2023-07-20T18:00:24;19.60;99.90
935;DHT22;454;53.254;10.400;2023-07-20T18:02:51;19.50;99.90
935;DHT22;454;53.254;10.400;2023-07-20T18:05:17;19.50;99.90
935;DHT22;454;53.254;10.400;2023-07-20T18:07:44;19.40;99.90
935;DHT22;454;53.254;10.400;2023-07-20T18:10:11;19.40;99.90
935;DHT22;454;53.254;10.400;2023-07-20T18:12:39;19.30;99.90
935;DHT22;454;53.254;10.400;2023-07-20T18:15:07;19.30;99.90
935;DHT22;454;53.254;10.400;2023-07-20T18:17:35;19.20;99.90
935;DHT22;454;53.254;10.400;2023-07-20T18:20:02;19.10;99.90
935;DHT22;454;53.254;10.400;2023-07-20T18:22:29;19.10;99.90
935;DHT22;454;53.254;10.400;2023-07-20T18:24:56;19.10;99.90
935;DHT22;454;53.254;10.400;2023-07-20T18:27:22;19.00;99.90
935;DHT22;454;53.254;10.400;2023-07-20T18:29:50;19.00;99.90
935;DHT22;454;53.254;10.400;2023-07-20T18:32:17;18.90;99.90
935;DHT22;454;53.254;10.400;2023-07-20T18:34:44;18.80;99.90
935;DHT22;454;53.254;10.400;2023-07-20T18:37:10;18.80;99.90
935;DHT22;454;53.254;10.400;2023-07-20T18:39:38;18.70;99.90
935;DHT22;454;53.254;10.400;2023-07-20T18:42:05;18.70;99.90
935;DHT22;454;53.254;10.400;2023-07-20T18:44:32;18.60;99.90
935;DHT22;454;53.254;10.400;2023-07-20T18:47:00;18.70;99.90
935;DHT22;454;53.254;10.400;2023-07-20T18:49:27;18.60;99.90
935;DHT22;454;53.254;10.400;2023-07-20T18:51:54;18.60;99.90
935;DHT22;454;53.254;10.400;2023-07-20T18:54:20;18.60;99.90
935;DHT22;454;53.254;10.400;2023-07-20T18:56:47;18.60;99.90
935;DHT22;454;53.254;10.400;2023-07-20T18:59:14;18.50;99.90
935;DHT22;454;53.254;10.400;2023-07-20T19:01:41;18.40;99.90
935;DHT22;454;53.254;10.400;2023-07-20T19:04:09;18.30;99.90
935;DHT22;454;53.254;10.400;2023-07-20T19:06:36;18.20;99.90
935;DHT22;454;53.254;10.400;2023-07-20T19:09:03;18.20;99.90
935;DHT22;454;53.254;10.400;2023-07-20T19:11:31;18.10;99.90
935;DHT22;454;53.254;10.400;2023-07-20T19:13:58;18.10;99.90
935;DHT22;454;53.254;10.400;2023-07-20T19:16:24;18.00;99.90
935;DHT22;454;53.254;10.400;2023-07-20T19:18:54;18.00;99.90
935;DHT22;454;53.254;10.400;2023-07-20T19:21:23;18.00;99.90
935;DHT22;454;53.254;10.400;2023-07-20T19:23:50;18.00;99.90
935;DHT22;454;53.254;10.400;2023-07-20T19:26:16;17.90;99.90
935;DHT22;454;53.254;10.400;2023-07-20T19:28:43;17.90;99.90
935;DHT22;454;53.254;10.400;2023-07-20T19:31:10;17.90;99.90
935;DHT22;454;53.254;10.400;2023-07-20T19:33:36;17.80;99.90
935;DHT22;454;53.254;10.400;2023-07-20T19:36:04;17.80;99.90
935;DHT22;454;53.254;10.400;2023-07-20T19:38:32;17.80;99.90
935;DHT22;454;53.254;10.400;2023-07-20T19:40:57;17.80;99.90
935;DHT22;454;53.254;10.400;2023-07-20T19:43:27;17.70;99.90
935;DHT22;454;53.254;10.400;2023-07-20T19:45:54;17.70;99.90
935;DHT22;454;53.254;10.400;2023-07-20T19:48:21;17.80;99.90
935;DHT22;454;53.254;10.400;2023-07-20T19:50:48;17.70;99.90
935;DHT22;454;53.254;10.400;2023-07-20T19:53:16;17.70;99.90
935;DHT22;454;53.254;10.400;2023-07-20T19:55:44;17.70;99.90
935;DHT22;454;53.254;10.400;2023-07-20T19:58:11;17.70;99.90
935;DHT22;454;53.254;10.400;2023-07-20T20:00:38;17.60;99.90
935;DHT22;454;53.254;10.400;2023-07-20T20:03:06;17.60;99.90
935;DHT22;454;53.254;10.400;2023-07-20T20:05:33;17.60;99.90
935;DHT22;454;53.254;10.400;2023-07-20T20:08:01;17.60;99.90
935;DHT22;454;53.254;10.400;2023-07-20T20:10:30;17.50;99.90
935;DHT22;454;53.254;10.400;2023-07-20T20:12:58;17.50;99.90
935;DHT22;454;53.254;10.400;2023-07-20T20:15:25;17.50;99.90
935;DHT22;454;53.254;10.400;2023-07-20T20:17:52;17.50;99.90